America — WDE6076 — position and weather

sailwx.info

Track history (hours):
 
Tides and Currents Weather Stations Pressure Air Temp Water Temp Dewpoint Dewpoint Depression Visibility Wind Speed Wind Dir Waves Ship Positions

America

Owner: ET Yacht, LLC, San Diego, CA. More information available from US FCC via Universal Licensing System and Coast Guard Vessel Documentation Center.

Last reported at 2016-May-17 19:14 UTC. Time now 2016-May-25 05:23 UTC.
Position N 40°48' W 073°49'.

Length 42 m; draft 3.5 m.

Type: Sailing vessel. MMSI: 367375550.

Date/timePositionNaut miles runAvg speedWind from/ knotsBaromVisibWave heightAir tempDewpointWater temp
2016-May-17 19:14N 40°48' W 073°49'7 9.7
2016-May-17 18:33N 40°46' W 073°57'4 4.3
2016-May-17 17:33N 40°43' W 074°01'  
2016-May-13 17:17N 40°48' W 073°59'6 8.6
2016-May-13 16:33N 40°42' W 074°01'  
2016-May-09 16:19N 40°48' W 073°50'7 9.1
2016-May-09 15:34N 40°45' W 073°58'3 2.2
2016-May-09 14:22N 40°43' W 074°01'0 0.2
2016-May-09 13:32N 40°43' W 074°01'0 0.0
2016-May-09 12:29N 40°43' W 074°01'0 0.3
2016-May-09 11:25N 40°43' W 074°01'0 0.4
2016-May-09 10:27N 40°43' W 074°01'0 0.0
2016-May-09 09:33N 40°43' W 074°01'0 0.0
2016-May-09 08:32N 40°43' W 074°01'0 0.0
2016-May-09 07:32N 40°43' W 074°01'0 0.0
2016-May-09 06:32N 40°43' W 074°01'0 0.0
2016-May-09 05:31N 40°43' W 074°01'0 0.0
2016-May-09 04:31N 40°43' W 074°01'0 0.3
2016-May-09 03:31N 40°43' W 074°01'0 0.3
2016-May-09 02:33N 40°43' W 074°01'0 0.1
2016-May-09 01:31N 40°43' W 074°01'0 0.0
2016-May-09 00:29N 40°43' W 074°01'0 0.0
2016-May-08 23:26N 40°43' W 074°01'0 0.2
2016-May-08 22:31N 40°43' W 074°01'0 0.1
2016-May-08 21:30N 40°43' W 074°01'0 0.1
2016-May-08 20:27N 40°43' W 074°01'0 0.4
2016-May-08 19:33N 40°42' W 074°01'0 0.0
2016-May-08 18:30N 40°42' W 074°01'0 0.1
2016-May-08 17:33N 40°42' W 074°01'1 0.6
2016-May-08 16:33N 40°43' W 074°01'0 0.0
2016-May-08 15:31N 40°43' W 074°01'0 0.0
2016-May-08 14:28N 40°43' W 074°01'0 0.0
2016-May-08 13:30N 40°43' W 074°01'0 0.1
2016-May-08 12:33N 40°43' W 074°01'0 0.1
2016-May-08 11:27N 40°43' W 074°01'0 0.0
2016-May-08 10:23N 40°43' W 074°01'0 0.0
2016-May-08 09:31N 40°43' W 074°01'0 0.0
2016-May-08 08:27N 40°43' W 074°01'0 0.0
2016-May-08 07:33N 40°43' W 074°01'0 0.0
2016-May-08 06:27N 40°43' W 074°01'0 0.0
2016-May-08 05:32N 40°43' W 074°01'0 0.0
2016-May-08 04:31N 40°43' W 074°01'0 0.0
2016-May-08 03:25N 40°43' W 074°01'0 0.0
2016-May-08 02:31N 40°43' W 074°01'0 0.0
2016-May-08 01:33N 40°43' W 074°01'0 0.1
2016-May-08 00:31N 40°43' W 074°01'0 0.1
2016-May-07 23:25N 40°43' W 074°01'0 0.0
2016-May-07 22:29N 40°43' W 074°01'0 0.0
2016-May-07 21:33N 40°43' W 074°01'0 0.0
2016-May-07 20:34N 40°43' W 074°01'1 0.9
2016-May-07 19:33N 40°42' W 074°02'  
Track history (hours):
 
Tides and Currents Weather Stations Pressure Air Temp Water Temp Dewpoint Dewpoint Depression Visibility Wind Speed Wind Dir Waves Ship Positions

America

Owner: ET Yacht, LLC, San Diego, CA. More information available from US FCC via Universal Licensing System and Coast Guard Vessel Documentation Center.

Last reported at 2016-May-17 19:14 UTC. Time now 2016-May-25 05:23 UTC.
Position N 40°48' W 073°49'.

Length 42 m; draft 3.5 m.

Type: Sailing vessel. MMSI: 367375550.

Date/timePositionNaut miles runAvg speedWind from/ knotsBaromVisibWave heightAir tempDewpointWater temp
2016-May-17 19:14N 40°48' W 073°49'7 9.7
2016-May-17 18:33N 40°46' W 073°57'4 4.3
2016-May-17 17:33N 40°43' W 074°01'  
2016-May-13 17:17N 40°48' W 073°59'6 8.6
2016-May-13 16:33N 40°42' W 074°01'  
2016-May-09 16:19N 40°48' W 073°50'7 9.1
2016-May-09 15:34N 40°45' W 073°58'3 2.2
2016-May-09 14:22N 40°43' W 074°01'0 0.2
2016-May-09 13:32N 40°43' W 074°01'0 0.0
2016-May-09 12:29N 40°43' W 074°01'0 0.3
2016-May-09 11:25N 40°43' W 074°01'0 0.4
2016-May-09 10:27N 40°43' W 074°01'0 0.0
2016-May-09 09:33N 40°43' W 074°01'0 0.0
2016-May-09 08:32N 40°43' W 074°01'0 0.0
2016-May-09 07:32N 40°43' W 074°01'0 0.0
2016-May-09 06:32N 40°43' W 074°01'0 0.0
2016-May-09 05:31N 40°43' W 074°01'0 0.0
2016-May-09 04:31N 40°43' W 074°01'0 0.3
2016-May-09 03:31N 40°43' W 074°01'0 0.3
2016-May-09 02:33N 40°43' W 074°01'0 0.1
2016-May-09 01:31N 40°43' W 074°01'0 0.0
2016-May-09 00:29N 40°43' W 074°01'0 0.0
2016-May-08 23:26N 40°43' W 074°01'0 0.2
2016-May-08 22:31N 40°43' W 074°01'0 0.1
2016-May-08 21:30N 40°43' W 074°01'0 0.1
2016-May-08 20:27N 40°43' W 074°01'0 0.4
2016-May-08 19:33N 40°42' W 074°01'0 0.0
2016-May-08 18:30N 40°42' W 074°01'0 0.1
2016-May-08 17:33N 40°42' W 074°01'1 0.6
2016-May-08 16:33N 40°43' W 074°01'0 0.0
2016-May-08 15:31N 40°43' W 074°01'0 0.0
2016-May-08 14:28N 40°43' W 074°01'0 0.0
2016-May-08 13:30N 40°43' W 074°01'0 0.1
2016-May-08 12:33N 40°43' W 074°01'0 0.1
2016-May-08 11:27N 40°43' W 074°01'0 0.0
2016-May-08 10:23N 40°43' W 074°01'0 0.0
2016-May-08 09:31N 40°43' W 074°01'0 0.0
2016-May-08 08:27N 40°43' W 074°01'0 0.0
2016-May-08 07:33N 40°43' W 074°01'0 0.0
2016-May-08 06:27N 40°43' W 074°01'0 0.0
2016-May-08 05:32N 40°43' W 074°01'0 0.0
2016-May-08 04:31N 40°43' W 074°01'0 0.0
2016-May-08 03:25N 40°43' W 074°01'0 0.0
2016-May-08 02:31N 40°43' W 074°01'0 0.0
2016-May-08 01:33N 40°43' W 074°01'0 0.1
2016-May-08 00:31N 40°43' W 074°01'0 0.1
2016-May-07 23:25N 40°43' W 074°01'0 0.0
2016-May-07 22:29N 40°43' W 074°01'0 0.0
2016-May-07 21:33N 40°43' W 074°01'0 0.0
2016-May-07 20:34N 40°43' W 074°01'1 0.9
2016-May-07 19:33N 40°42' W 074°02'  

Dump ship's entire track history